Time;durP1;ratioP1;P1;durP2;ratioP2;P2;SDS_P1;SDS_P2;PMS_P1;PMS_P2;Temp;Humidity;BMP_temperature;BMP_pressure;BME280_temperature;BME280_humidity;BME280_pressure;Samples;Min_cycle;Max_cycle;Signal;HPM_P1;HPM_P2
2022/11/29 00:01:49;;;;;;;30.15;17.55;;;;;;;3.17;100.00;96039.53;5066118;28;20492;-79
2022/11/29 00:04:16;;;;;;;34.33;18.55;;;;;;;3.16;100.00;96041.44;5060031;28;20045;-81
2022/11/29 00:06:46;;;;;;;36.38;18.95;;;;;;;3.16;100.00;96035.25;5043044;28;20555;-82
2022/11/29 00:09:13;;;;;;;32.08;17.95;;;;;;;3.15;100.00;96031.75;5042233;28;20053;-80
2022/11/29 00:14:28;;;;;;;35.95;19.02;;;;;;;3.14;100.00;96032.84;5061444;28;20071;-81
2022/11/29 00:16:58;;;;;;;33.20;18.75;;;;;;;3.11;100.00;96033.38;5054219;28;20045;-81
2022/11/29 00:19:24;;;;;;;31.40;18.45;;;;;;;3.12;100.00;96034.97;5063623;28;20057;-81
2022/11/29 00:21:52;;;;;;;34.45;18.73;;;;;;;3.11;100.00;96028.81;5064634;28;20119;-81
2022/11/29 00:24:19;;;;;;;35.55;18.80;;;;;;;3.12;100.00;96029.59;5070928;28;20052;-81
2022/11/29 00:26:46;;;;;;;34.25;19.40;;;;;;;3.10;100.00;96021.00;5059668;28;20037;-81
2022/11/29 00:29:12;;;;;;;36.03;18.95;;;;;;;3.12;100.00;96024.22;5061045;28;20054;-81
2022/11/29 00:31:40;;;;;;;35.85;18.63;;;;;;;3.12;100.00;96024.22;5059855;28;20057;-81
2022/11/29 00:34:07;;;;;;;34.58;18.60;;;;;;;3.12;100.00;96024.22;5059283;28;20041;-81
2022/11/29 00:36:35;;;;;;;34.90;18.67;;;;;;;3.12;100.00;96018.84;5058397;28;20045;-80
2022/11/29 00:39:04;;;;;;;35.33;19.20;;;;;;;3.12;100.00;96024.22;5058650;28;20045;-80
2022/11/29 00:41:32;;;;;;;35.83;20.58;;;;;;;3.13;100.00;96020.44;5059423;28;20053;-81
2022/11/29 00:43:59;;;;;;;33.28;19.65;;;;;;;3.11;100.00;96014.56;5065766;28;20045;-82
2022/11/29 00:46:25;;;;;;;34.58;19.48;;;;;;;3.11;100.00;96023.41;5066691;28;20049;-80
2022/11/29 00:48:52;;;;;;;33.25;19.42;;;;;;;3.11;100.00;96017.25;5061750;28;20045;-81
2022/11/29 00:51:18;;;;;;;36.80;19.00;;;;;;;3.11;100.00;96015.34;5059305;28;20063;-81
2022/11/29 00:53:47;;;;;;;37.65;20.42;;;;;;;3.13;100.00;96015.06;5059550;28;20045;-81
2022/11/29 00:56:15;;;;;;;39.45;20.00;;;;;;;3.10;100.00;96018.31;5059039;28;20045;-80
2022/11/29 00:58:42;;;;;;;34.25;19.60;;;;;;;3.10;100.00;96026.41;5058793;28;20076;-82
2022/11/29 01:01:11;;;;;;;37.38;20.63;;;;;;;3.10;100.00;96026.41;5058711;28;20411;-81
2022/11/29 01:03:38;;;;;;;39.25;20.70;;;;;;;3.07;100.00;96024.25;5061586;28;20055;-81
2022/11/29 01:06:07;;;;;;;37.53;20.00;;;;;;;3.08;100.00;96025.84;5058885;28;20106;-81
2022/11/29 01:08:34;;;;;;;35.75;20.02;;;;;;;3.09;100.00;96024.78;5064895;28;20657;-81
2022/11/29 01:11:03;;;;;;;35.08;19.77;;;;;;;3.11;100.00;96017.25;5059314;28;20059;-81
2022/11/29 01:13:31;;;;;;;37.97;20.25;;;;;;;3.10;100.00;96026.41;5059956;28;20055;-80
2022/11/29 01:15:58;;;;;;;36.58;20.20;;;;;;;3.12;100.00;96026.91;5058112;28;20051;-80
2022/11/29 01:18:29;;;;;;;39.58;22.05;;;;;;;3.10;100.00;96023.72;5060426;28;20048;-81
2022/11/29 01:20:57;;;;;;;38.35;21.10;;;;;;;3.10;100.00;96031.78;5051152;28;20083;-80
2022/11/29 01:23:24;;;;;;;37.05;20.80;;;;;;;3.07;100.00;96016.19;5065028;28;20493;-81
2022/11/29 01:25:57;;;;;;;42.55;21.15;;;;;;;3.09;100.00;96030.19;5061075;28;20057;-80
2022/11/29 01:28:23;;;;;;;36.95;20.13;;;;;;;3.08;100.00;96021.31;5060707;28;20049;-80
2022/11/29 01:30:51;;;;;;;36.83;20.58;;;;;;;3.08;100.00;96025.84;5059234;28;20128;-81
2022/11/29 01:33:18;;;;;;;38.60;21.55;;;;;;;3.07;100.00;96024.25;5070787;28;20045;-81
2022/11/29 01:35:48;;;;;;;43.92;20.85;;;;;;;3.10;100.00;96029.09;5061312;28;20079;-80
2022/11/29 01:38:15;;;;;;;40.05;20.80;;;;;;;3.08;100.00;96031.22;5064234;28;20049;-80
2022/11/29 01:40:41;;;;;;;38.03;20.23;;;;;;;3.08;100.00;96028.53;5065683;28;20128;-80
2022/11/29 01:43:14;;;;;;;36.38;20.30;;;;;;;3.07;100.00;96026.94;5071240;28;20044;-81
2022/11/29 01:45:41;;;;;;;;;;;;;;;3.08;100.00;96028.53;5068434;28;20041;-81
2022/11/29 01:48:10;;;;;;;37.78;19.33;;;;;;;3.07;100.00;96026.94;5061431;28;19920;-81
2022/11/29 01:50:37;;;;;;;37.28;19.83;;;;;;;3.05;100.00;96024.53;5062214;28;20045;-81
2022/11/29 01:53:05;;;;;;;40.03;20.65;;;;;;;3.06;100.00;96025.34;5068285;28;20052;-80
2022/11/29 01:55:32;;;;;;;33.97;19.20;;;;;;;3.03;100.00;96026.72;5062558;28;20051;-81
2022/11/29 01:58:00;;;;;;;39.55;19.77;;;;;;;3.01;100.00;96022.69;5059511;28;20045;-81
2022/11/29 02:00:27;;;;;;;37.25;19.60;;;;;;;3.03;100.00;96020.53;5066123;28;20045;-81
2022/11/29 02:02:58;;;;;;;40.53;21.83;;;;;;;2.99;100.00;96014.91;5058195;28;20049;-81
2022/11/29 02:05:27;;;;;;;33.75;20.20;;;;;;;2.97;100.00;96017.03;5064872;28;20068;-80
2022/11/29 02:07:57;;;;;;;37.30;19.42;;;;;;;2.97;100.00;96017.03;5058495;28;20047;-80
2022/11/29 02:10:27;;;;;;;35.65;20.17;;;;;;;2.93;100.00;96015.22;5068339;28;20045;-81
2022/11/29 02:13:01;;;;;;;38.25;20.33;;;;;;;2.96;100.00;96010.06;5059980;28;20041;-80
2022/11/29 02:15:41;;;;;;;38.15;19.90;;;;;;;2.94;100.00;96014.13;5067602;28;20076;-80
2022/11/29 02:18:13;;;;;;;38.20;20.23;;;;;;;2.88;100.00;96022.22;5064523;28;20104;-82
2022/11/29 02:21:16;;;;;;;38.90;20.20;;;;;;;2.88;100.00;96011.47;5060356;28;20095;-81
2022/11/29 02:24:14;;;;;;;37.10;20.37;;;;;;;2.88;100.00;96024.09;5070157;28;20045;-81
2022/11/29 02:27:02;;;;;;;35.85;19.52;;;;;;;2.82;100.00;96020.63;5064759;28;20109;-81
2022/11/29 02:30:03;;;;;;;37.97;20.02;;;;;;;2.84;100.00;96029.22;5059594;28;20088;-80
2022/11/29 02:33:13;;;;;;;36.67;20.33;;;;;;;2.83;100.00;96027.63;5066276;28;20052;-81
2022/11/29 02:35:58;;;;;;;35.47;19.45;;;;;;;2.84;100.00;96023.84;5066148;28;20044;-80
2022/11/29 02:38:49;;;;;;;35.72;19.50;;;;;;;2.82;100.00;96027.91;5063836;28;20059;-81
2022/11/29 02:41:30;;;;;;;34.70;19.45;;;;;;;2.87;100.00;96023.31;5066530;28;20063;-80
2022/11/29 02:44:24;;;;;;;38.25;20.38;;;;;;;2.90;100.00;96026.50;5060605;28;20128;-80
2022/11/29 02:47:03;;;;;;;35.35;19.17;;;;;;;2.87;100.00;96033.22;5044139;28;20069;-83
2022/11/29 02:49:49;;;;;;;37.53;19.38;;;;;;;2.90;100.00;96029.19;5063374;28;20055;-80
2022/11/29 02:52:24;;;;;;;37.20;19.60;;;;;;;2.92;100.00;96029.72;5068850;28;20139;-80
2022/11/29 02:54:58;;;;;;;36.83;20.58;;;;;;;2.92;100.00;96024.34;5063366;28;20072;-80
2022/11/29 02:57:36;;;;;;;35.42;19.20;;;;;;;2.96;100.00;96025.41;5060639;28;20048;-81
2022/11/29 03:00:06;;;;;;;36.83;19.98;;;;;;;2.99;100.00;96031.03;5045566;28;20069;-81
2022/11/29 03:02:40;;;;;;;35.88;19.65;;;;;;;2.98;100.00;96025.94;5063616;28;20111;-81
2022/11/29 03:05:18;;;;;;;32.95;18.75;;;;;;;2.95;100.00;96024.59;5060809;28;20068;-81
2022/11/29 03:07:53;;;;;;;37.20;19.50;;;;;;;2.97;100.00;96027.00;5063958;28;20049;-80
2022/11/29 03:10:30;;;;;;;35.20;19.25;;;;;;;2.97;100.00;96032.38;5065779;28;20063;-81
2022/11/29 03:12:59;;;;;;;31.90;18.67;;;;;;;2.94;100.00;96032.94;5066656;28;20041;-81
2022/11/29 03:15:32;;;;;;;35.30;18.98;;;;;;;2.96;100.00;96036.94;5068202;28;20072;-80
2022/11/29 03:18:15;;;;;;;38.85;19.90;;;;;;;2.99;100.00;96039.09;5067707;28;20037;-80
2022/11/29 03:21:04;;;;;;;39.97;20.02;;;;;;;3.01;100.00;96041.50;5066216;28;20108;-81
2022/11/29 03:23:36;;;;;;;35.20;19.58;;;;;;;3.04;100.00;96041.75;5072413;28;20512;-81
2022/11/29 03:26:08;;;;;;;35.15;19.60;;;;;;;3.05;100.00;96048.75;5071436;28;20052;-81
2022/11/29 03:28:40;;;;;;;33.78;18.45;;;;;;;3.08;100.00;96047.38;5067415;28;20325;-83
2022/11/29 03:31:12;;;;;;;36.40;19.35;;;;;;;3.11;100.00;96046.84;5075365;28;20049;-81
2022/11/29 03:33:49;;;;;;;34.97;18.63;;;;;;;3.14;100.00;96043.59;5065590;28;20113;-81
2022/11/29 03:36:29;;;;;;;34.85;18.35;;;;;;;3.15;100.00;96047.88;5068252;28;20051;-81
2022/11/29 03:39:02;;;;;;;34.15;18.35;;;;;;;3.20;100.00;96045.16;5077076;28;20039;-81
2022/11/29 03:41:35;;;;;;;35.00;18.95;;;;;;;3.19;100.00;96040.06;5067725;28;20049;-81
2022/11/29 03:44:11;;;;;;;33.10;19.47;;;;;;;3.18;100.00;96055.38;5067621;28;20422;-80
2022/11/29 03:46:44;;;;;;;34.38;19.48;;;;;;;3.12;100.00;96045.75;5067664;28;20063;-80
2022/11/29 03:49:25;;;;;;;36.50;18.23;;;;;;;3.13;100.00;96047.34;5077539;28;20063;-81
2022/11/29 03:52:03;;;;;;;31.67;18.30;;;;;;;3.12;100.00;96043.84;5065708;28;20128;-79
2022/11/29 03:54:40;;;;;;;35.47;19.23;;;;;;;3.10;100.00;96039.84;5074345;28;20053;-80
2022/11/29 03:57:07;;;;;;;32.60;18.08;;;;;;;3.12;100.00;96041.16;5065614;28;20045;-81
2022/11/29 03:59:47;;;;;;;30.52;17.70;;;;;;;3.11;100.00;96054.91;5068001;28;20041;-79
2022/11/29 04:02:48;;;;;;;33.45;17.95;;;;;;;3.11;100.00;96044.94;5072143;28;20041;-80
2022/11/29 04:05:29;;;;;;;31.50;17.42;;;;;;;3.12;100.00;96051.13;5066972;28;20045;-81
2022/11/29 04:08:14;;;;;;;32.42;18.10;;;;;;;3.14;100.00;96044.41;5066255;28;20080;-81
2022/11/29 04:11:53;;;;;;;32.38;17.58;;;;;;;3.20;100.00;96042.47;5082738;28;20068;-81
2022/11/29 04:15:01;;;;;;;33.42;18.25;;;;;;;3.21;100.00;96048.66;5078340;28;20048;-80
2022/11/29 04:18:02;;;;;;;35.30;18.30;;;;;;;3.16;100.00;96041.44;5049475;28;20077;-81
2022/11/29 04:21:19;;;;;;;34.13;18.17;;;;;;;3.18;100.00;96043.81;5077247;28;20112;-81
2022/11/29 04:24:02;;;;;;;27.95;16.45;;;;;;;3.15;100.00;96042.50;5051264;28;20048;-81
2022/11/29 04:26:49;;;;;;;32.70;18.33;;;;;;;3.14;100.00;96046.28;5073044;28;20041;-81
2022/11/29 04:29:30;;;;;;;30.13;16.88;;;;;;;3.15;100.00;96045.19;5062112;28;20057;-81
2022/11/29 04:32:21;;;;;;;31.02;16.92;;;;;;;3.15;100.00;96037.13;5054462;28;20060;-81
2022/11/29 04:35:04;;;;;;;34.17;17.80;;;;;;;3.19;100.00;96040.06;5063257;28;20084;-82
2022/11/29 04:37:57;;;;;;;36.00;17.63;;;;;;;3.21;100.00;96044.09;5064136;28;20071;-82
2022/11/29 04:40:44;;;;;;;28.77;17.42;;;;;;;3.16;100.00;96046.81;5062290;28;20049;-82
2022/11/29 04:43:33;;;;;;;33.00;17.38;;;;;;;3.14;100.00;96048.97;5063565;28;20041;-81
2022/11/29 04:46:26;;;;;;;33.70;18.60;;;;;;;3.12;100.00;96049.25;5064782;28;20045;-83
2022/11/29 04:49:10;;;;;;;30.42;16.80;;;;;;;3.13;100.00;96044.66;5068519;28;20484;-81
2022/11/29 04:51:58;;;;;;;35.83;18.35;;;;;;;3.17;100.00;96056.47;5068447;28;20066;-81
2022/11/29 04:54:33;;;;;;;32.45;17.35;;;;;;;3.18;100.00;96054.59;5079048;28;20384;-82
2022/11/29 04:57:07;;;;;;;32.40;18.10;;;;;;;3.20;100.00;96055.13;5055777;28;20399;-84
2022/11/29 04:59:43;;;;;;;36.15;19.17;;;;;;;3.18;100.00;96050.00;5062975;28;20051;-82
2022/11/29 05:02:22;;;;;;;34.17;19.10;;;;;;;3.18;100.00;96054.59;5065365;28;20114;-82
2022/11/29 05:04:56;;;;;;;36.58;19.45;;;;;;;3.13;100.00;96058.09;5052920;28;20041;-82
2022/11/29 05:07:31;;;;;;;34.92;18.63;;;;;;;3.11;100.00;96060.28;5062376;28;20492;-81
2022/11/29 05:10:06;;;;;;;34.90;18.95;;;;;;;3.10;100.00;96058.69;5066416;28;20135;-82
2022/11/29 05:12:42;;;;;;;34.92;18.42;;;;;;;3.09;100.00;96057.88;5061510;28;20043;-81
2022/11/29 05:15:37;;;;;;;33.20;17.50;;;;;;;3.10;100.00;96058.69;5070708;28;20542;-81
2022/11/29 05:18:13;;;;;;;32.70;18.13;;;;;;;3.10;100.00;96056.78;5057887;28;20135;-82
2022/11/29 05:20:48;;;;;;;35.50;19.05;;;;;;;3.09;100.00;96063.25;5066487;28;20075;-81
2022/11/29 05:23:29;;;;;;;37.08;18.88;;;;;;;3.07;100.00;96059.22;5062214;28;20041;-82
2022/11/29 05:26:02;;;;;;;34.25;19.00;;;;;;;3.07;100.00;96064.59;5066873;28;20049;-81
2022/11/29 05:28:43;;;;;;;35.67;19.20;;;;;;;3.05;100.00;96066.78;5062615;28;20610;-82
2022/11/29 05:31:25;;;;;;;36.75;18.60;;;;;;;3.04;100.00;96051.72;5064341;28;20056;-81
2022/11/29 05:34:25;;;;;;;35.13;18.52;;;;;;;3.06;100.00;96068.38;5071243;28;20052;-81
2022/11/29 05:36:59;;;;;;;35.42;19.77;;;;;;;3.09;100.00;96067.84;5076415;28;20100;-82
2022/11/29 05:39:38;;;;;;;35.67;19.40;;;;;;;3.08;100.00;96068.91;5074764;28;20052;-82
2022/11/29 05:42:24;;;;;;;32.85;18.98;;;;;;;3.09;100.00;96065.16;5072729;28;20028;-81
2022/11/29 05:44:59;;;;;;;33.47;18.92;;;;;;;3.11;100.00;96076.44;5073206;28;20128;-81
2022/11/29 05:47:35;;;;;;;34.67;18.30;;;;;;;3.09;100.00;96070.53;5078014;28;20051;-82
2022/11/29 05:50:10;;;;;;;39.65;21.60;;;;;;;3.06;100.00;96071.06;5066687;28;20100;-82
2022/11/29 05:52:49;;;;;;;36.53;20.75;;;;;;;3.11;100.00;96071.84;5074947;28;20104;-82
2022/11/29 05:55:24;;;;;;;34.13;19.40;;;;;;;3.12;100.00;96069.97;5078870;28;20101;-80
2022/11/29 05:57:57;;;;;;;33.97;18.30;;;;;;;3.11;100.00;96071.84;5078421;28;20105;-83
2022/11/29 06:00:29;;;;;;;27.20;14.40;;;;;;;3.12;100.00;96078.03;5071808;28;20068;-81
2022/11/29 06:03:06;;;;;;;34.33;18.75;;;;;;;3.12;100.00;96072.66;5071465;28;20134;-81
2022/11/29 06:05:39;;;;;;;34.25;18.45;;;;;;;3.13;100.00;96074.25;5071698;28;20108;-81
2022/11/29 06:08:10;;;;;;;33.30;18.43;;;;;;;3.15;100.00;96072.09;5077794;28;20037;-82
2022/11/29 06:10:40;;;;;;;36.33;18.45;;;;;;;3.19;100.00;96078.53;5068810;28;20600;-84
2022/11/29 06:13:20;;;;;;;34.97;19.38;;;;;;;3.18;100.00;96084.19;5075749;28;20052;-80
2022/11/29 06:16:07;;;;;;;34.78;18.63;;;;;;;3.17;100.00;96075.31;5076991;22;20032;-82
2022/11/29 06:19:07;;;;;;;33.38;17.70;;;;;;;3.18;100.00;96085.00;5085152;28;20041;-82
2022/11/29 06:21:45;;;;;;;31.48;17.50;;;;;;;3.20;100.00;96090.91;5087450;28;20055;-83
2022/11/29 06:24:36;;;;;;;37.78;19.15;;;;;;;3.24;100.00;96091.19;5089604;28;20052;-81
2022/11/29 06:27:22;;;;;;;33.22;18.55;;;;;;;3.27;100.00;96086.03;5075754;28;20057;-82
2022/11/29 06:29:56;;;;;;;32.42;18.48;;;;;;;3.26;100.00;96087.09;5091963;28;20111;-82
2022/11/29 06:32:36;;;;;;;34.58;19.05;;;;;;;3.25;100.00;96093.56;5088447;28;20055;-79
2022/11/29 06:35:17;;;;;;;35.75;19.15;;;;;;;3.24;100.00;96097.34;5073063;28;20045;-81
2022/11/29 06:38:21;;;;;;;35.25;19.17;;;;;;;3.23;100.00;96101.09;5089248;28;20075;-83
2022/11/29 06:40:51;;;;;;;30.35;18.02;;;;;;;3.20;100.00;96100.88;5089849;28;20068;-82
2022/11/29 06:43:28;;;;;;;34.42;18.75;;;;;;;3.22;100.00;96104.09;5090922;28;20144;-82
2022/11/29 06:46:01;;;;;;;31.05;18.63;;;;;;;3.23;100.00;96106.50;5091231;28;20048;-82
2022/11/29 06:48:35;;;;;;;36.10;19.75;;;;;;;3.24;100.00;96102.75;5092448;28;20052;-82
2022/11/29 06:51:08;;;;;;;33.28;20.15;;;;;;;3.22;100.00;96104.88;5082623;28;20044;-82
2022/11/29 06:53:56;;;;;;;33.25;19.13;;;;;;;3.23;100.00;96106.50;5090634;28;20056;-83
2022/11/29 06:56:37;;;;;;;36.20;19.45;;;;;;;3.26;100.00;96105.94;5071232;28;20048;-83
2022/11/29 06:59:10;;;;;;;;;;;;;;;3.24;100.00;96108.13;5083741;28;20041;-82
2022/11/29 07:01:41;;;;;;;35.03;18.55;;;;;;;3.23;100.00;96111.88;5168293;22;19920;-83
2022/11/29 07:04:38;;;;;;;37.83;20.38;;;;;;;3.28;100.00;96113.72;5126751;28;20047;-82
2022/11/29 07:07:08;;;;;;;33.90;19.35;;;;;;;3.27;100.00;96115.63;5118107;28;20111;-79
2022/11/29 07:09:39;;;;;;;39.15;21.00;;;;;;;3.25;100.00;96120.50;5133987;27;20032;-81
2022/11/29 07:12:07;;;;;;;38.40;20.80;;;;;;;3.28;100.00;96119.91;5138093;27;20073;-79
2022/11/29 07:14:35;;;;;;;38.65;21.10;;;;;;;3.30;100.00;96117.78;5119947;28;20066;-79
2022/11/29 07:17:10;;;;;;;38.78;21.33;;;;;;;3.34;100.00;96113.44;5119832;28;20039;-80
2022/11/29 07:19:48;;;;;;;36.15;20.50;;;;;;;3.38;100.00;96119.88;5122483;28;20049;-79
2022/11/29 07:22:30;;;;;;;32.90;19.15;;;;;;;3.42;100.00;96124.72;5115374;28;20043;-79
2022/11/29 07:25:03;;;;;;;38.53;20.02;;;;;;;3.44;100.00;96123.34;5120994;28;20050;-80
2022/11/29 07:27:36;;;;;;;41.13;20.48;;;;;;;3.45;100.00;96124.97;5120114;28;20050;-79
2022/11/29 07:30:12;;;;;;;38.85;20.85;;;;;;;3.43;100.00;96121.72;5122372;28;20036;-78
2022/11/29 07:32:55;;;;;;;37.92;20.08;;;;;;;3.43;100.00;96127.09;5122574;28;20051;-77
2022/11/29 07:35:31;;;;;;;41.38;22.45;;;;;;;3.43;100.00;96129.00;5118336;28;20085;-79
2022/11/29 07:38:08;;;;;;;38.83;21.30;;;;;;;3.48;100.00;96124.38;5127914;28;20059;-79
2022/11/29 07:40:45;;;;;;;38.40;20.38;;;;;;;3.47;100.00;96132.75;5124113;28;20069;-79
2022/11/29 07:43:23;;;;;;;39.17;20.42;;;;;;;3.46;100.00;96131.16;5130840;28;20134;-80
2022/11/29 07:45:52;;;;;;;46.17;22.00;;;;;;;3.48;100.00;96134.34;5126807;28;20055;-79
2022/11/29 07:48:19;;;;;;;43.45;22.88;;;;;;;3.50;100.00;96126.78;5116867;28;20402;-77
2022/11/29 07:50:47;;;;;;;39.60;22.02;;;;;;;3.51;100.00;96129.22;5117602;28;20044;-78
2022/11/29 07:53:16;;;;;;;44.03;22.88;;;;;;;3.51;100.00;96139.19;5117034;27;20604;-77
2022/11/29 07:55:42;;;;;;;38.97;21.17;;;;;;;3.53;100.00;96134.31;5116197;28;20050;-77
2022/11/29 07:58:11;;;;;;;39.22;21.25;;;;;;;3.58;100.00;96135.09;5115560;28;20056;-76
2022/11/29 08:00:38;;;;;;;41.17;22.35;;;;;;;3.61;100.00;96139.13;5116047;28;20376;-78
2022/11/29 08:03:05;;;;;;;37.60;20.77;;;;;;;3.61;100.00;96139.13;5110711;28;20058;-76
2022/11/29 08:05:32;;;;;;;39.35;22.35;;;;;;;3.62;100.00;96138.06;5114024;28;20050;-78
2022/11/29 08:08:00;;;;;;;47.03;23.73;;;;;;;3.61;100.00;96133.75;5116952;28;20117;-78
2022/11/29 08:10:26;;;;;;;39.10;21.92;;;;;;;3.58;100.00;96134.28;5118269;28;20399;-79
2022/11/29 08:12:53;;;;;;;39.72;21.90;;;;;;;3.58;100.00;96139.69;5111821;28;20040;-78
2022/11/29 08:15:21;;;;;;;43.42;22.60;;;;;;;3.61;100.00;96144.53;5119271;28;20051;-78
2022/11/29 08:17:47;;;;;;;40.25;21.30;;;;;;;3.58;100.00;96140.50;5120177;28;20046;-78
2022/11/29 08:20:15;;;;;;;42.00;22.20;;;;;;;3.61;100.00;96144.53;5118591;28;20058;-79
2022/11/29 08:22:42;;;;;;;40.53;22.60;;;;;;;3.63;100.00;96147.72;5119352;28;20035;-78
2022/11/29 08:25:10;;;;;;;44.97;23.73;;;;;;;3.62;100.00;96148.81;5109452;28;20055;-77
2022/11/29 08:27:38;;;;;;;40.53;22.20;;;;;;;3.60;100.00;96153.66;5118675;28;20043;-79
2022/11/29 08:30:05;;;;;;;41.50;21.20;;;;;;;3.60;100.00;96149.09;5116620;28;20490;-77
2022/11/29 08:32:33;;;;;;;38.75;21.83;;;;;;;3.59;100.00;96146.66;5117909;28;20043;-80
2022/11/29 08:35:00;;;;;;;43.45;22.33;;;;;;;3.59;100.00;96152.06;5117962;28;20044;-78
2022/11/29 08:37:26;;;;;;;42.58;24.45;;;;;;;3.61;100.00;96149.91;5116451;28;20086;-77
2022/11/29 08:39:54;;;;;;;41.97;22.23;;;;;;;3.64;100.00;96152.03;5108085;28;20482;-79
2022/11/29 08:42:21;;;;;;;43.47;23.80;;;;;;;3.63;100.00;96158.50;5115634;28;20035;-76
2022/11/29 08:44:48;;;;;;;42.85;23.95;;;;;;;3.63;100.00;96155.81;5115418;28;20043;-77
2022/11/29 08:50:01;;;;;;;43.85;24.25;;;;;;;3.70;100.00;96158.19;5107815;28;20486;-77
2022/11/29 08:55:15;;;;;;;43.58;23.15;;;;;;;3.80;100.00;96152.75;5115486;28;20147;-77
2022/11/29 08:57:43;;;;;;;48.83;24.85;;;;;;;3.79;100.00;96160.00;5115247;28;20138;-79
2022/11/29 09:00:11;;;;;;;43.08;23.58;;;;;;;3.76;100.00;96163.28;5115613;28;20047;-78
2022/11/29 09:02:38;;;;;;;47.10;24.60;;;;;;;3.79;100.00;96162.72;5114484;28;20555;-78
2022/11/29 09:05:05;;;;;;;42.45;22.85;;;;;;;3.83;100.00;96163.75;5116110;28;20040;-79
2022/11/29 09:07:32;;;;;;;41.47;24.23;;;;;;;3.84;100.00;96165.38;5118135;27;20047;-81
2022/11/29 09:10:03;;;;;;;40.25;24.15;;;;;;;3.81;100.00;96167.81;5135769;27;20036;-80
2022/11/29 09:12:30;;;;;;;41.22;23.40;;;;;;;3.79;100.00;96173.47;5127852;27;20044;-81
2022/11/29 09:14:58;;;;;;;43.97;24.33;;;;;;;3.80;100.00;96169.69;5117851;28;20048;-80
2022/11/29 09:17:25;;;;;;;41.63;24.10;;;;;;;3.84;100.00;96173.44;5110000;28;20046;-78
2022/11/29 09:19:51;;;;;;;39.17;22.42;;;;;;;3.84;100.00;96176.16;5106808;28;20082;-79
2022/11/29 09:22:18;;;;;;;40.72;23.15;;;;;;;3.83;100.00;96179.94;5114665;28;20128;-77
2022/11/29 09:24:45;;;;;;;39.17;22.02;;;;;;;3.85;100.00;96180.44;5107594;28;20054;-78
2022/11/29 09:27:12;;;;;;;38.17;21.95;;;;;;;3.85;100.00;96177.75;5114919;28;20376;-78
2022/11/29 09:29:38;;;;;;;36.83;22.15;;;;;;;3.80;100.00;96182.38;5115665;28;20070;-79
2022/11/29 09:32:06;;;;;;;39.88;22.73;;;;;;;3.84;100.00;96181.53;5115919;28;20490;-79
2022/11/29 09:34:33;;;;;;;44.15;24.15;;;;;;;3.88;100.00;96181.78;5118144;28;20035;-80
2022/11/29 09:36:59;;;;;;;39.22;22.08;;;;;;;3.90;100.00;96177.72;5119631;28;20132;-78
2022/11/29 09:39:26;;;;;;;38.97;22.58;;;;;;;3.92;100.00;96182.84;5113651;28;20048;-77
2022/11/29 09:42:12;;;;;;;39.00;22.58;;;;;;;3.90;100.00;96180.41;5105699;28;20040;-77
2022/11/29 09:44:52;;;;;;;38.65;21.48;;;;;;;3.91;100.00;96184.75;5113674;28;20505;-77
2022/11/29 09:47:45;;;;;;;38.60;22.15;;;;;;;3.92;100.00;96186.34;5114246;28;20051;-77
2022/11/29 09:50:23;;;;;;;37.03;21.55;;;;;;;3.98;100.00;96186.31;5110760;28;20078;-78
2022/11/29 09:52:59;;;;;;;37.15;21.08;;;;;;;4.02;100.00;96177.38;5118848;28;20048;-84
2022/11/29 09:55:42;;;;;;;41.42;23.35;;;;;;;4.07;100.00;96181.91;5112933;28;20047;-80
2022/11/29 09:58:15;;;;;;;37.47;21.80;;;;;;;4.13;100.00;96188.91;5110922;28;20074;-77
2022/11/29 10:00:47;;;;;;;39.72;21.70;;;;;;;4.11;100.00;96185.66;5112994;28;20046;-78
2022/11/29 10:03:24;;;;;;;40.92;22.15;;;;;;;4.11;100.00;96186.47;5113481;28;20047;-78
2022/11/29 10:05:56;;;;;;;39.35;21.52;;;;;;;4.12;100.00;96189.97;5111979;28;20043;-78
2022/11/29 10:08:27;;;;;;;39.63;23.05;;;;;;;4.16;100.00;96188.31;5113318;28;20048;-78
2022/11/29 10:10:58;;;;;;;39.40;22.60;;;;;;;4.13;100.00;96191.59;5104428;28;20548;-78
2022/11/29 10:13:27;;;;;;;44.83;23.25;;;;;;;4.12;100.00;96189.97;5112883;28;20718;-78
2022/11/29 10:15:58;;;;;;;40.42;21.42;;;;;;;4.13;100.00;96184.31;5104817;28;20051;-78
2022/11/29 10:18:34;;;;;;;41.67;21.38;;;;;;;4.16;100.00;96182.94;5114157;28;20054;-77
2022/11/29 10:21:13;;;;;;;38.60;22.67;;;;;;;4.17;100.00;96185.34;5102566;28;20491;-79
2022/11/29 10:23:43;;;;;;;36.45;21.75;;;;;;;4.16;100.00;96178.34;5113451;28;20052;-79
2022/11/29 10:26:11;;;;;;;35.63;20.75;;;;;;;4.19;100.00;96182.38;5114978;28;20043;-79
2022/11/29 10:28:46;;;;;;;33.60;20.83;;;;;;;4.21;100.00;96182.88;5118718;28;20039;-81
2022/11/29 10:31:20;;;;;;;38.03;21.63;;;;;;;4.31;100.00;96185.50;5116959;28;20522;-79
2022/11/29 10:33:48;;;;;;;39.30;21.40;;;;;;;4.36;100.00;96182.78;5116494;28;20046;-78
2022/11/29 10:36:19;;;;;;;34.92;21.00;;;;;;;4.41;100.00;96184.63;5113265;28;20075;-78
2022/11/29 10:38:47;;;;;;;34.33;20.92;;;;;;;4.41;100.00;96179.22;5111918;28;20047;-78
2022/11/29 10:41:18;;;;;;;36.13;20.50;;;;;;;4.41;100.00;96168.44;5105212;28;20048;-78
2022/11/29 10:43:45;;;;;;;35.70;21.20;;;;;;;4.40;100.00;96173.03;5114151;28;20052;-79
2022/11/29 10:46:16;;;;;;;35.38;21.10;;;;;;;4.42;100.00;96170.84;5114091;28;20383;-80
2022/11/29 10:48:43;;;;;;;37.08;21.70;;;;;;;4.55;100.00;96174.00;5114742;28;20050;-79
2022/11/29 10:51:16;;;;;;;33.63;20.45;;;;;;;4.64;100.00;96173.06;5115602;28;20107;-79
2022/11/29 10:53:44;;;;;;;37.50;22.92;;;;;;;4.70;100.00;96171.16;5124138;28;20066;-81
2022/11/29 10:56:21;;;;;;;37.30;23.30;;;;;;;4.74;100.00;96172.19;5116383;28;20039;-78
2022/11/29 10:58:56;;;;;;;38.17;23.25;;;;;;;4.77;100.00;96168.94;5118767;28;20052;-78
2022/11/29 11:01:24;;;;;;;38.90;22.67;;;;;;;4.80;100.00;96170.22;5119332;28;20043;-77
2022/11/29 11:03:53;;;;;;;42.40;24.42;;;;;;;4.80;100.00;96175.63;5114105;28;20044;-78
2022/11/29 11:06:24;;;;;;;41.63;24.92;;;;;;;4.83;100.00;96178.56;5120540;28;20044;-79
2022/11/29 11:08:53;;;;;;;37.97;22.73;;;;;;;4.84;100.00;96177.47;5115026;28;20055;-76
2022/11/29 11:11:26;;;;;;;41.88;23.50;;;;;;;4.87;100.00;96176.13;5107942;28;20165;-77
2022/11/29 11:14:00;;;;;;;;;;;;;;;4.83;100.00;96175.88;5117224;28;20050;-81
2022/11/29 11:16:26;;;;;;;34.85;21.80;;;;;;;4.79;100.00;96168.63;5114342;28;19919;-77
2022/11/29 11:18:54;;;;;;;35.67;21.70;;;;;;;4.76;100.00;96182.72;5115485;28;20405;-80
2022/11/29 11:21:25;;;;;;;35.65;20.52;;;;;;;4.76;100.00;96175.41;5114811;28;20054;-79
2022/11/29 11:23:55;;;;;;;36.28;21.23;;;;;;;4.78;100.00;96178.63;5106403;28;20051;-78
2022/11/29 11:26:23;;;;;;;42.22;23.48;;;;;;;4.78;100.00;96173.22;5112650;28;20597;-78
2022/11/29 11:28:53;;;;;;;36.38;21.83;;;;;;;4.81;100.00;96183.47;5113316;28;20043;-77
2022/11/29 11:31:27;;;;;;;37.72;22.55;;;;;;;4.79;100.00;96174.03;5113017;28;20039;-78
2022/11/29 11:33:54;;;;;;;37.75;22.02;;;;;;;4.72;100.00;96174.38;5110118;28;20044;-78
2022/11/29 11:36:25;;;;;;;36.22;22.05;;;;;;;4.69;100.00;96170.34;5115089;28;20134;-78
2022/11/29 11:38:53;;;;;;;37.22;21.52;;;;;;;4.67;100.00;96182.50;5112351;28;20067;-78
2022/11/29 11:42:35;;;;;;;37.55;22.20;;;;;;;4.64;100.00;96185.75;5109407;28;20047;-78
2022/11/29 11:44:21;;;;;;;36.60;20.52;;;;;;;4.68;100.00;96184.09;5100162;28;20048;-77
2022/11/29 11:46:50;;;;;;;40.40;23.75;;;;;;;4.78;100.00;96189.41;5111088;28;20418;-78
2022/11/29 11:49:26;;;;;;;40.67;22.33;;;;;;;4.81;100.00;96188.06;5113674;28;20090;-78
2022/11/29 11:51:53;;;;;;;41.10;24.75;;;;;;;4.79;100.00;96187.50;5116586;28;20501;-77
2022/11/29 11:54:21;;;;;;;43.95;23.83;;;;;;;4.71;100.00;96180.84;5116981;28;20079;-78
2022/11/29 11:56:48;;;;;;;41.30;23.33;;;;;;;4.78;100.00;96181.31;5115614;28;20051;-80
2022/11/29 11:59:20;;;;;;;40.78;22.75;;;;;;;4.80;100.00;96176.44;5111762;28;20430;-78